Airfield :
LOGIN :

Register | Disclaimer

   EN    FR    IT 

 










Legend :    VFR   Marginal VFR   IFR   Intensive IFR   Very Intensive IFR
Visi :
Ceiling :
>= 8 km
>= 3000ft
5 to 8 km
1000 to 3000 ft
1500m to 5 km
500 to 1000 ft
800 to 1500m
200 to 500 ft
< 800m
< 200 ft
Symbols :   Thunderstorms  Fog  Heavy snow  Heavy precipitations  Wind > 20 kt
SIGMETs :     Misc.  Thunderstorms  Icing  Turbulence  Mountain Waves  Volcanic Ashes







- Airport Elevation : 1768 ft


LEHC - Huesca Pirineos

CURRENT METAR :
  • 141830Z AUTO 24006KT 9999 OVC041 08/07 Q1012

EXPIRED METARs :
  • 141800Z AUTO 25005KT 9999 BKN046 08/07 Q1012
  • 141730Z AUTO 27003KT 9999 OVC050 09/07 Q1012
  • 141700Z AUTO 26005KT 9999 BKN050 09/07 Q1013
  • 141630Z AUTO 25006KT 9999 BKN041 BKN047 09/08 Q1013
  • 141600Z 24007KT 210V280 9999 SCT035 SCT045 BKN060 10/08 Q1013

TAF TAF LEHC
Valid from the 14 at 09:00 until the 15 at 09:00 UTC


140800Z 1409/1509 25008KT 9999 BKN030 TX11/1413Z TN02/1507Z
BECMG 1418/1420 VRB03KT
TEMPO 1500/1509 28007KT
No reported NOTAMs for that airfield.



MET'MAP, your aeronautical weather chart ! - Copyright ORBIFLY December 2007 - Disclaimer

ORBIFLY MET'MAP TEAM :

Programming & Development : Alexandra Zaïnal
Concept & Development : Baudouin d'Aumeries
Co-Development & Prog : Marc-Olivier Méhu
Technical & hardware support : Manuel Goepfert

Contact : metmap@orbifly.com




SOURCES & CREDITS :

   NOAA